Time;durP1;ratioP1;P1;durP2;ratioP2;P2;SDS_P1;SDS_P2;PMS_P1;PMS_P2;Temp;Humidity;BMP_temperature;BMP_pressure;BME280_temperature;BME280_humidity;BME280_pressure;Samples;Min_cycle;Max_cycle;Signal;HPM_P1;HPM_P2
2024/01/06 00:00:32;;;;;;;4.20;1.30;;;;;;;5.09;100.00;147468.41;5024547;28;20235;-55
2024/01/06 00:02:58;;;;;;;6.63;1.60;;;;;;;5.08;100.00;147464.69;5019315;28;20235;-56
2024/01/06 00:05:25;;;;;;;6.17;1.40;;;;;;;5.07;100.00;147463.47;5024523;28;20231;-57
2024/01/06 00:07:53;;;;;;;9.17;2.33;;;;;;;5.11;100.00;147473.38;5021916;28;20254;-57
2024/01/06 00:10:19;;;;;;;8.83;1.80;;;;;;;5.14;100.00;147479.56;5024913;28;20235;-56
2024/01/06 00:12:46;;;;;;;8.13;1.90;;;;;;;5.16;100.00;147485.78;5024600;28;20238;-56
2024/01/06 00:15:13;;;;;;;8.27;1.93;;;;;;;5.16;100.00;147484.53;5022607;28;20556;-57
2024/01/06 00:17:40;;;;;;;7.10;1.83;;;;;;;5.14;100.00;147479.56;5025838;28;20228;-57
2024/01/06 00:20:07;;;;;;;4.27;1.60;;;;;;;5.11;100.00;147473.38;5020912;28;20703;-56
2024/01/06 00:22:35;;;;;;;8.00;1.70;;;;;;;5.19;100.00;147490.75;5024346;28;20298;-56
2024/01/06 00:25:03;;;;;;;5.73;2.10;;;;;;;5.18;100.00;147489.50;5021610;28;20227;-56
2024/01/06 00:27:29;;;;;;;8.90;1.93;;;;;;;5.16;100.00;147485.78;5024948;28;20232;-56
2024/01/06 00:29:56;;;;;;;9.93;2.07;;;;;;;5.19;100.00;147491.97;5022109;28;20227;-56
2024/01/06 00:32:23;;;;;;;7.20;1.47;;;;;;;5.16;100.00;147484.53;5024761;28;20236;-56
2024/01/06 00:34:49;;;;;;;8.30;1.80;;;;;;;5.19;100.00;147491.97;5024926;28;20251;-57
2024/01/06 00:37:16;;;;;;;3.90;1.77;;;;;;;5.16;100.00;147484.53;5021804;28;20227;-55
2024/01/06 00:39:42;;;;;;;6.03;1.60;;;;;;;5.15;100.00;147483.31;5022858;28;20314;-56
2024/01/06 00:42:13;;;;;;;9.63;2.30;;;;;;;5.11;100.00;147472.13;5021403;28;20322;-57
2024/01/06 00:44:40;;;;;;;5.60;1.77;;;;;;;5.08;100.00;147464.69;5024439;28;20230;-57
2024/01/06 00:47:06;;;;;;;6.67;1.60;;;;;;;5.06;100.00;147460.97;5020721;28;20230;-57
2024/01/06 00:49:33;;;;;;;4.50;1.70;;;;;;;5.12;100.00;147474.59;5022998;28;20571;-56
2024/01/06 00:51:59;;;;;;;8.07;2.53;;;;;;;5.08;100.00;147465.94;5020017;28;20243;-56
2024/01/06 00:54:26;;;;;;;4.53;1.43;;;;;;;5.07;100.00;147462.19;5024054;28;20237;-57
2024/01/06 00:56:53;;;;;;;5.03;1.90;;;;;;;5.04;100.00;147456.00;5021321;28;20227;-56
2024/01/06 00:59:21;;;;;;;6.67;1.70;;;;;;;5.03;100.00;147454.75;5023739;28;20223;-55
2024/01/06 01:01:47;;;;;;;8.20;1.90;;;;;;;5.05;100.00;147458.50;5024081;28;20235;-57
2024/01/06 01:04:14;;;;;;;4.90;1.60;;;;;;;5.03;100.00;147453.53;5019536;28;20231;-56
2024/01/06 01:06:40;;;;;;;7.40;1.77;;;;;;;4.99;100.00;147443.59;5024268;28;20579;-56
2024/01/06 01:09:08;;;;;;;3.77;1.80;;;;;;;4.95;100.00;147433.69;5021737;28;20316;-56
2024/01/06 01:11:35;;;;;;;8.67;1.70;;;;;;;4.95;100.00;147433.69;5023841;28;20228;-55
2024/01/06 01:14:02;;;;;;;4.27;1.67;;;;;;;4.94;100.00;147431.19;5020117;28;20226;-56
2024/01/06 01:16:32;;;;;;;8.83;2.10;;;;;;;4.97;100.00;147439.84;5023425;28;20265;-56
2024/01/06 01:18:58;;;;;;;7.70;1.87;;;;;;;4.96;100.00;147437.38;5021058;28;20705;-56
2024/01/06 01:21:25;;;;;;;6.73;2.13;;;;;;;4.99;100.00;147444.81;5024396;28;20228;-56
2024/01/06 01:23:52;;;;;;;5.47;1.73;;;;;;;4.95;100.00;147434.91;5002944;28;20220;-57
2024/01/06 01:26:18;;;;;;;8.93;1.80;;;;;;;4.93;100.00;147428.72;5023993;28;20236;-57
2024/01/06 01:28:45;;;;;;;4.60;1.60;;;;;;;4.89;100.00;147420.00;5024079;28;20250;-56
2024/01/06 01:31:12;;;;;;;5.90;1.60;;;;;;;4.85;100.00;147411.34;5019271;28;23393;-57
2024/01/06 01:33:40;;;;;;;10.37;2.40;;;;;;;4.86;100.00;147412.56;5023812;28;20270;-57
2024/01/06 01:36:07;;;;;;;5.07;1.90;;;;;;;4.83;100.00;147406.38;5020236;28;20223;-56
2024/01/06 01:38:34;;;;;;;7.90;1.57;;;;;;;4.82;100.00;147402.63;5024072;28;20239;-56
2024/01/06 01:41:00;;;;;;;4.37;1.87;;;;;;;4.75;100.00;147386.53;5021337;28;20646;-56
2024/01/06 01:43:28;;;;;;;5.93;2.03;;;;;;;4.74;100.00;147384.06;5016902;28;20245;-57
2024/01/06 01:45:55;;;;;;;6.53;2.00;;;;;;;4.70;100.00;147374.13;5016654;28;20227;-55
2024/01/06 01:48:23;;;;;;;8.70;2.33;;;;;;;4.76;100.00;147389.00;5020979;28;20230;-56
2024/01/06 01:50:52;;;;;;;7.63;1.97;;;;;;;4.70;100.00;147374.13;5022144;28;21115;-56
2024/01/06 01:53:20;;;;;;;10.93;2.17;;;;;;;4.68;100.00;147370.44;5020435;28;20679;-56
2024/01/06 01:55:48;;;;;;;5.33;1.90;;;;;;;4.69;100.00;147371.66;5022927;28;20235;-56
2024/01/06 01:58:15;;;;;;;10.37;1.90;;;;;;;4.69;100.00;147372.91;5018299;28;20228;-55
2024/01/06 02:00:42;;;;;;;9.00;2.20;;;;;;;4.70;100.00;147374.13;5023911;28;20239;-56
2024/01/06 02:03:10;;;;;;;7.90;2.20;;;;;;;4.73;100.00;147382.84;5020106;28;20247;-56
2024/01/06 02:05:37;;;;;;;6.07;2.03;;;;;;;4.79;100.00;147396.47;5023981;28;20223;-56
2024/01/06 02:08:06;;;;;;;3.93;2.17;;;;;;;4.83;100.00;147405.13;5018773;28;20219;-56
2024/01/06 02:10:32;;;;;;;7.73;2.20;;;;;;;4.88;100.00;147418.78;5021142;28;20216;-56
2024/01/06 02:13:08;;;;;;;4.97;1.80;;;;;;;4.92;100.00;147427.44;5016017;28;20233;-55
2024/01/06 02:15:35;;;;;;;7.80;1.90;;;;;;;4.97;100.00;147438.63;5021877;28;20242;-57
2024/01/06 02:18:01;;;;;;;7.87;2.33;;;;;;;5.01;100.00;147448.56;5019604;28;20247;-55
2024/01/06 02:20:31;;;;;;;10.67;2.33;;;;;;;4.97;100.00;147439.84;5024985;28;20580;-56
2024/01/06 02:23:00;;;;;;;6.40;2.00;;;;;;;5.00;100.00;147446.09;5020592;28;20231;-55
2024/01/06 02:25:27;;;;;;;7.03;2.10;;;;;;;5.02;100.00;147451.06;5024234;28;20235;-56
2024/01/06 02:27:53;;;;;;;6.47;2.07;;;;;;;5.02;100.00;147451.06;5021533;28;20227;-55
2024/01/06 02:30:20;;;;;;;8.17;2.20;;;;;;;5.02;100.00;147452.25;5026761;28;20224;-56
2024/01/06 02:32:47;;;;;;;10.47;2.30;;;;;;;5.09;100.00;147468.41;5024196;28;20239;-56
2024/01/06 02:35:13;;;;;;;9.73;1.93;;;;;;;5.12;100.00;147475.88;5023304;28;20228;-53
2024/01/06 02:37:40;;;;;;;10.17;2.17;;;;;;;5.08;100.00;147465.94;5027725;28;20232;-55
2024/01/06 02:40:09;;;;;;;3.10;2.00;;;;;;;5.13;100.00;147477.09;5024504;28;20243;-56
2024/01/06 02:42:36;;;;;;;8.63;2.13;;;;;;;5.11;100.00;147472.13;5024124;28;20466;-55
2024/01/06 02:45:03;;;;;;;8.23;2.00;;;;;;;5.09;100.00;147467.16;5023990;28;20694;-56
2024/01/06 02:47:29;;;;;;;6.23;2.00;;;;;;;5.08;100.00;147465.94;5026774;28;20595;-55
2024/01/06 02:49:56;;;;;;;8.33;1.90;;;;;;;5.03;100.00;147453.53;5022914;28;20395;-56
2024/01/06 02:52:23;;;;;;;5.57;1.70;;;;;;;5.02;100.00;147451.06;5025731;28;20247;-55
2024/01/06 02:54:50;;;;;;;7.60;1.70;;;;;;;5.02;100.00;147452.25;5026649;28;20239;-56
2024/01/06 02:57:18;;;;;;;7.83;1.90;;;;;;;5.00;100.00;147447.31;5024965;28;20235;-56
2024/01/06 02:59:46;;;;;;;9.50;2.17;;;;;;;4.98;100.00;147442.34;5027677;28;20454;-55
2024/01/06 03:02:13;;;;;;;5.80;1.70;;;;;;;4.99;100.00;147443.59;5024238;28;20240;-55
2024/01/06 03:04:39;;;;;;;6.87;1.87;;;;;;;4.97;100.00;147438.63;5027269;28;20223;-55
2024/01/06 03:07:06;;;;;;;9.50;2.03;;;;;;;4.96;100.00;147436.16;5023075;28;20236;-56
2024/01/06 03:09:32;;;;;;;5.67;1.57;;;;;;;4.94;100.00;147432.41;5027395;28;20228;-55
2024/01/06 03:11:59;;;;;;;7.97;1.90;;;;;;;4.94;100.00;147431.19;5023106;28;20233;-53
2024/01/06 03:14:27;;;;;;;10.30;1.97;;;;;;;4.97;100.00;147439.84;5026536;28;20224;-56
2024/01/06 03:16:54;;;;;;;9.00;1.97;;;;;;;4.99;99.05;147443.59;5024726;28;20679;-55
2024/01/06 03:19:20;;;;;;;6.57;1.90;;;;;;;4.96;100.00;147437.38;5027350;28;20247;-55
2024/01/06 03:21:47;;;;;;;6.27;1.77;;;;;;;4.97;100.00;147438.63;5026785;28;20227;-54
2024/01/06 03:24:13;;;;;;;5.13;2.03;;;;;;;4.95;99.94;147433.69;5024179;28;20231;-56
2024/01/06 03:26:40;;;;;;;6.47;1.93;;;;;;;4.91;100.00;147423.75;5025722;28;20227;-56
2024/01/06 03:29:06;;;;;;;7.17;1.60;;;;;;;4.90;100.00;147421.28;5024247;28;20231;-56
2024/01/06 03:31:34;;;;;;;3.93;1.77;;;;;;;4.94;100.00;147431.19;5026346;28;20234;-54
2024/01/06 03:34:01;;;;;;;4.63;1.87;;;;;;;4.95;100.00;147434.91;5023812;28;20560;-53
2024/01/06 03:36:28;;;;;;;6.57;1.90;;;;;;;5.00;100.00;147446.09;5026854;28;20239;-55
2024/01/06 03:38:54;;;;;;;5.87;1.97;;;;;;;4.99;98.76;147443.59;5023669;28;20937;-56
2024/01/06 03:41:21;;;;;;;6.50;1.70;;;;;;;4.95;100.00;147433.69;5026437;28;20231;-55
2024/01/06 03:43:47;;;;;;;7.23;2.17;;;;;;;4.94;99.94;147432.41;5026380;28;20220;-56
2024/01/06 03:46:14;;;;;;;7.00;2.27;;;;;;;4.96;98.93;147437.38;5024075;28;20694;-56
2024/01/06 03:48:42;;;;;;;12.70;2.90;;;;;;;4.97;98.90;147438.63;5026657;28;21056;-55
2024/01/06 03:51:08;;;;;;;8.40;2.23;;;;;;;4.96;99.30;147436.16;5023833;28;20232;-55
2024/01/06 03:53:35;;;;;;;10.90;2.70;;;;;;;4.93;99.37;147429.94;5008472;28;20231;-56
2024/01/06 03:56:02;;;;;;;4.90;1.80;;;;;;;4.97;100.00;147438.63;5023761;28;20228;-56
2024/01/06 03:58:29;;;;;;;10.20;2.10;;;;;;;4.97;99.08;147438.63;5008280;28;20589;-56
2024/01/06 04:00:55;;;;;;;8.27;1.93;;;;;;;4.96;98.49;147437.38;5023137;28;20322;-55
2024/01/06 04:03:22;;;;;;;4.13;2.00;;;;;;;4.98;98.65;147442.34;5026058;28;20714;-55
2024/01/06 04:05:50;;;;;;;5.47;1.97;;;;;;;4.95;100.00;147434.91;5026450;28;20228;-54
2024/01/06 04:08:16;;;;;;;11.07;2.07;;;;;;;5.00;100.00;147446.09;5022477;28;20606;-56
2024/01/06 04:10:43;;;;;;;9.87;1.73;;;;;;;4.95;100.00;147433.69;5025736;28;20220;-55
2024/01/06 04:13:10;;;;;;;7.67;2.13;;;;;;;4.95;100.00;147434.91;5021192;28;20570;-56
2024/01/06 04:15:37;;;;;;;7.83;2.30;;;;;;;4.96;100.00;147437.38;5008194;28;20338;-55
2024/01/06 04:18:05;;;;;;;5.87;1.77;;;;;;;4.93;100.00;147428.72;5022938;28;20692;-56
2024/01/06 04:20:32;;;;;;;4.10;1.60;;;;;;;4.92;100.00;147426.22;5026357;28;20548;-56
2024/01/06 04:23:00;;;;;;;5.93;2.00;;;;;;;4.84;100.00;147408.88;5023109;28;20253;-56
2024/01/06 04:25:26;;;;;;;6.40;2.10;;;;;;;4.83;100.00;147406.38;5007632;28;20243;-56
2024/01/06 04:27:53;;;;;;;5.77;2.00;;;;;;;4.87;100.00;147415.03;5023122;28;20226;-56
2024/01/06 04:33:01;;;;;;;8.00;2.47;;;;;;;4.77;100.00;147391.50;5011678;23;20227;-64
2024/01/06 04:35:28;;;;;;;6.47;2.30;;;;;;;4.79;100.00;147395.19;4959392;28;20254;-64
2024/01/06 04:37:55;;;;;;;8.40;2.70;;;;;;;4.80;100.00;147397.69;4957013;28;20241;-64
2024/01/06 04:40:23;;;;;;;7.77;2.47;;;;;;;4.80;100.00;147397.69;4959538;28;20273;-64
2024/01/06 04:42:49;;;;;;;7.07;2.50;;;;;;;4.75;100.00;147386.53;4958726;28;20720;-63
2024/01/06 04:45:19;;;;;;;7.73;2.53;;;;;;;4.77;100.00;147390.28;4957684;28;20237;-63
2024/01/06 04:47:45;;;;;;;5.60;2.53;;;;;;;4.80;100.00;147397.69;4960220;28;20226;-63
2024/01/06 04:50:12;;;;;;;7.37;1.93;;;;;;;4.79;100.00;147396.47;4956713;28;20257;-64
2024/01/06 04:52:39;;;;;;;6.90;2.63;;;;;;;4.78;100.00;147392.72;4959413;28;20237;-64
2024/01/06 04:55:05;;;;;;;6.60;2.87;;;;;;;4.75;100.00;147386.53;4955861;28;20563;-64
2024/01/06 04:57:33;;;;;;;6.20;2.17;;;;;;;4.78;100.00;147392.72;4960168;28;20222;-64
2024/01/06 05:00:00;;;;;;;6.23;2.40;;;;;;;4.84;100.00;147407.59;4958538;28;20739;-64
2024/01/06 05:02:27;;;;;;;6.10;2.53;;;;;;;4.80;100.00;147398.94;4962749;28;20582;-64
2024/01/06 05:04:54;;;;;;;6.30;2.43;;;;;;;4.78;100.00;147393.97;4958838;28;20573;-64
2024/01/06 05:07:20;;;;;;;7.33;2.10;;;;;;;4.77;100.00;147391.50;4957802;28;20245;-64
2024/01/06 05:09:47;;;;;;;8.90;2.60;;;;;;;4.77;100.00;147391.50;4958751;28;20228;-64
2024/01/06 05:12:13;;;;;;;5.40;1.90;;;;;;;4.80;100.00;147397.69;4958468;28;20236;-64
2024/01/06 05:14:41;;;;;;;9.37;2.37;;;;;;;4.78;100.00;147392.72;4960021;28;20333;-64
2024/01/06 05:17:12;;;;;;;7.17;2.00;;;;;;;4.80;100.00;147398.94;4959240;28;20227;-65
2024/01/06 05:19:38;;;;;;;5.50;2.40;;;;;;;4.79;100.00;147395.19;4959070;28;20225;-64
2024/01/06 05:22:05;;;;;;;5.27;2.40;;;;;;;4.79;100.00;147396.47;4956761;28;20218;-64
2024/01/06 05:24:31;;;;;;;7.60;2.20;;;;;;;4.81;99.84;147401.41;4956428;28;20226;-64
2024/01/06 05:26:58;;;;;;;4.80;2.10;;;;;;;4.79;100.00;147395.19;4958325;28;20230;-64
2024/01/06 05:29:25;;;;;;;6.80;2.30;;;;;;;4.80;100.00;147398.94;4958152;28;20229;-64
2024/01/06 05:31:53;;;;;;;6.50;2.10;;;;;;;4.79;100.00;147396.47;4958001;28;20610;-64
2024/01/06 05:34:20;;;;;;;9.10;2.23;;;;;;;4.81;100.00;147400.16;4959391;28;20253;-64
2024/01/06 05:36:47;;;;;;;5.03;1.77;;;;;;;4.80;100.00;147398.94;4956795;28;20229;-64
2024/01/06 05:39:13;;;;;;;6.00;1.90;;;;;;;4.79;100.00;147396.47;4954043;28;20686;-64
2024/01/06 05:41:40;;;;;;;10.77;2.20;;;;;;;4.78;100.00;147393.97;4958191;28;20225;-64
2024/01/06 05:44:07;;;;;;;4.60;2.00;;;;;;;4.77;100.00;147391.50;4958128;28;20704;-64
2024/01/06 05:46:35;;;;;;;8.73;2.40;;;;;;;4.76;100.00;147389.00;4958443;28;20289;-64
2024/01/06 05:49:04;;;;;;;4.40;1.80;;;;;;;4.76;100.00;147389.00;4957874;28;20596;-64
2024/01/06 05:51:30;;;;;;;4.70;2.20;;;;;;;4.78;100.00;147393.97;4964635;28;20232;-64
2024/01/06 05:53:57;;;;;;;4.97;2.10;;;;;;;4.77;100.00;147390.28;4964868;28;20722;-64
2024/01/06 05:56:25;;;;;;;7.33;2.80;;;;;;;4.76;100.00;147387.78;4966271;28;20240;-64
2024/01/06 05:58:52;;;;;;;4.70;2.40;;;;;;;4.82;99.67;147403.91;4967111;28;20312;-64
2024/01/06 06:01:18;;;;;;;5.03;1.90;;;;;;;4.82;100.00;147402.63;4959910;28;20868;-64
2024/01/06 06:03:45;;;;;;;5.17;2.00;;;;;;;4.84;99.86;147408.88;4965289;28;20231;-64
2024/01/06 06:06:13;;;;;;;5.57;2.67;;;;;;;4.86;99.91;147413.81;4959617;28;20225;-64
2024/01/06 06:08:41;;;;;;;5.27;1.90;;;;;;;4.84;98.24;147407.59;4963415;28;20708;-64
2024/01/06 06:11:10;;;;;;;5.20;2.10;;;;;;;4.84;97.34;147408.88;4961868;28;20285;-64
2024/01/06 06:13:37;;;;;;;6.30;1.90;;;;;;;4.84;96.97;147408.88;4948091;28;20233;-64
2024/01/06 06:16:05;;;;;;;5.27;2.00;;;;;;;4.85;97.52;147411.34;4963431;28;20691;-64
2024/01/06 06:18:32;;;;;;;6.53;2.00;;;;;;;4.90;97.23;147421.28;4964025;28;20231;-64
2024/01/06 06:20:59;;;;;;;4.33;2.00;;;;;;;4.83;96.65;147406.38;4960750;28;20237;-64
2024/01/06 06:23:27;;;;;;;4.43;1.77;;;;;;;4.81;97.16;147400.16;4964535;28;20230;-64
2024/01/06 06:25:54;;;;;;;5.43;1.87;;;;;;;4.80;96.31;147398.94;4960403;28;20237;-64
2024/01/06 06:28:20;;;;;;;5.73;1.83;;;;;;;4.84;96.34;147408.88;4952430;28;20230;-64
2024/01/06 06:30:47;;;;;;;3.30;1.73;;;;;;;4.86;97.07;147412.56;4964232;28;20218;-64
2024/01/06 06:33:13;;;;;;;4.90;1.57;;;;;;;4.87;96.77;147416.31;4963021;28;20240;-64
2024/01/06 06:35:40;;;;;;;3.97;1.50;;;;;;;4.89;96.62;147420.00;4965157;28;20221;-64
2024/01/06 06:38:07;;;;;;;5.10;1.90;;;;;;;4.90;96.18;147422.50;4961454;28;20229;-64
2024/01/06 06:40:35;;;;;;;5.43;1.80;;;;;;;4.90;95.51;147422.50;4965222;28;20214;-64
2024/01/06 06:43:01;;;;;;;5.63;3.67;;;;;;;4.94;95.87;147431.19;4963355;28;20313;-65
2024/01/06 06:45:28;;;;;;;4.60;2.37;;;;;;;4.93;95.17;147429.94;4964914;28;20225;-65
2024/01/06 06:47:55;;;;;;;5.67;2.20;;;;;;;4.93;96.27;147428.72;4961259;28;20249;-64
2024/01/06 06:50:21;;;;;;;8.07;1.90;;;;;;;4.94;95.96;147432.41;4964914;28;20232;-64
2024/01/06 06:52:48;;;;;;;6.13;1.97;;;;;;;4.91;94.75;147424.97;4964682;28;20258;-64
2024/01/06 06:55:14;;;;;;;5.47;2.10;;;;;;;4.91;95.74;147424.97;4962331;28;20226;-64
2024/01/06 06:57:42;;;;;;;4.30;1.90;;;;;;;4.90;96.29;147421.28;4966001;28;20579;-64
2024/01/06 07:00:10;;;;;;;3.27;2.13;;;;;;;4.91;95.64;147424.97;4963477;28;20234;-64
2024/01/06 07:02:36;;;;;;;4.70;2.20;;;;;;;4.95;97.02;147433.69;4961682;28;20744;-65
2024/01/06 07:05:06;;;;;;;7.37;1.90;;;;;;;4.89;94.78;147420.00;4959470;28;20233;-64
2024/01/06 07:07:33;;;;;;;3.70;2.10;;;;;;;4.90;96.01;147421.28;4960341;28;20234;-64
2024/01/06 07:10:01;;;;;;;3.27;2.23;;;;;;;4.91;96.19;147424.97;4961230;28;20240;-64
2024/01/06 07:12:28;;;;;;;4.90;1.93;;;;;;;4.92;95.91;147426.22;4961743;28;20223;-64
2024/01/06 07:14:56;;;;;;;4.23;1.97;;;;;;;4.88;95.83;147418.78;4959373;28;20681;-64
2024/01/06 07:17:22;;;;;;;4.23;1.93;;;;;;;4.84;97.35;147407.59;4962716;28;20233;-64
2024/01/06 07:19:49;;;;;;;6.47;2.20;;;;;;;4.85;96.29;147411.34;4963575;28;20230;-65
2024/01/06 07:22:16;;;;;;;5.73;2.10;;;;;;;4.87;96.30;147415.03;4957814;28;20276;-64
2024/01/06 07:24:43;;;;;;;6.47;2.30;;;;;;;4.82;97.54;147403.91;4962400;28;20222;-64
2024/01/06 07:27:12;;;;;;;5.33;2.23;;;;;;;4.87;96.78;147415.03;4956074;28;20226;-64
2024/01/06 07:29:39;;;;;;;7.30;2.40;;;;;;;4.79;97.40;147396.47;4942694;28;20238;-64
2024/01/06 07:32:07;;;;;;;7.90;3.40;;;;;;;4.75;99.80;147386.53;4959063;28;20293;-64
2024/01/06 07:34:34;;;;;;;8.20;2.77;;;;;;;4.74;100.00;147384.06;4962217;28;20229;-64
2024/01/06 07:37:01;;;;;;;7.13;3.43;;;;;;;4.69;100.00;147372.91;4959603;28;20217;-64
2024/01/06 07:39:28;;;;;;;4.97;3.37;;;;;;;4.67;100.00;147366.69;4944775;28;20318;-64
2024/01/06 07:41:54;;;;;;;7.70;3.83;;;;;;;4.69;100.00;147371.66;4959107;28;20248;-64
2024/01/06 07:44:24;;;;;;;6.47;3.30;;;;;;;4.61;100.00;147353.06;4961195;28;20230;-64
2024/01/06 07:46:51;;;;;;;6.90;3.50;;;;;;;4.65;100.00;147362.97;4962255;28;20234;-64
2024/01/06 07:49:19;;;;;;;8.97;3.73;;;;;;;4.61;100.00;147353.06;4960724;28;20229;-64
2024/01/06 07:51:45;;;;;;;10.90;4.00;;;;;;;4.67;100.00;147367.94;4959674;28;20229;-64
2024/01/06 07:54:12;;;;;;;5.27;4.00;;;;;;;4.61;100.00;147351.78;4956440;28;20238;-64
2024/01/06 07:56:39;;;;;;;8.00;3.97;;;;;;;4.40;100.00;147303.44;4959184;28;20219;-64
2024/01/06 07:59:06;;;;;;;7.27;3.90;;;;;;;4.50;100.00;147327.00;4959651;28;20220;-64
2024/01/06 08:01:32;;;;;;;8.43;4.03;;;;;;;4.52;100.00;147331.94;4959263;28;20235;-63
2024/01/06 08:03:59;;;;;;;10.17;7.07;;;;;;;4.49;100.00;147324.50;4946724;28;20759;-63
2024/01/06 08:06:27;;;;;;;7.73;3.90;;;;;;;4.53;100.00;147333.22;4959417;28;20304;-63
2024/01/06 08:08:54;;;;;;;15.27;12.63;;;;;;;4.52;100.00;147331.94;4958018;28;20234;-64
2024/01/06 08:11:21;;;;;;;22.50;17.27;;;;;;;4.53;100.00;147334.44;4959687;28;20321;-64
2024/01/06 08:13:48;;;;;;;11.80;8.80;;;;;;;4.46;100.00;147315.84;4961722;28;20241;-64
2024/01/06 08:16:14;;;;;;;10.07;8.20;;;;;;;4.47;100.00;147318.34;4956506;28;20590;-63
2024/01/06 08:18:41;;;;;;;5.40;3.43;;;;;;;4.41;100.00;147305.94;4959051;28;20711;-63
2024/01/06 08:21:07;;;;;;;6.33;4.87;;;;;;;4.42;100.00;147307.16;4957487;28;20222;-63
2024/01/06 08:23:36;;;;;;;7.73;4.40;;;;;;;4.44;100.00;147312.09;4960265;28;20237;-63
2024/01/06 08:26:03;;;;;;;9.10;6.27;;;;;;;4.47;100.00;147319.53;4960554;28;20234;-63
2024/01/06 08:28:30;;;;;;;13.77;8.40;;;;;;;4.52;100.00;147330.72;4960817;28;20689;-63
2024/01/06 08:30:56;;;;;;;8.67;3.70;;;;;;;4.50;100.00;147327.00;4942037;28;20240;-63
2024/01/06 08:33:23;;;;;;;6.57;3.57;;;;;;;4.54;100.00;147336.91;4959195;28;20702;-63
2024/01/06 08:35:50;;;;;;;5.60;3.60;;;;;;;4.65;100.00;147361.72;4958848;28;20237;-63
2024/01/06 08:38:16;;;;;;;7.53;4.77;;;;;;;4.64;100.00;147359.25;4957733;28;20229;-63
2024/01/06 08:40:47;;;;;;;7.63;4.80;;;;;;;4.64;100.00;147360.50;4941614;28;20222;-63
2024/01/06 08:43:14;;;;;;;7.20;4.23;;;;;;;4.61;100.00;147353.06;4957415;28;20238;-63
2024/01/06 08:45:41;;;;;;;9.80;7.93;;;;;;;4.55;100.00;147338.19;4959946;28;20238;-63
2024/01/06 08:48:08;;;;;;;6.70;3.93;;;;;;;4.57;100.00;147343.13;4956743;28;20217;-63
2024/01/06 08:50:34;;;;;;;4.83;3.63;;;;;;;4.56;100.00;147341.88;4958550;28;20253;-63
2024/01/06 08:53:01;;;;;;;5.10;3.33;;;;;;;4.57;100.00;147344.34;4956492;28;20230;-63
2024/01/06 08:55:28;;;;;;;7.27;2.90;;;;;;;4.58;100.00;147346.84;4959321;28;20527;-63
2024/01/06 08:57:55;;;;;;;4.67;3.30;;;;;;;4.62;100.00;147354.28;4959559;28;20585;-64
2024/01/06 09:00:22;;;;;;;5.53;3.30;;;;;;;4.61;100.00;147351.78;4955677;28;20237;-64
2024/01/06 09:02:49;;;;;;;6.73;3.57;;;;;;;4.67;100.00;147366.69;4960192;28;20230;-64
2024/01/06 09:05:15;;;;;;;4.03;3.03;;;;;;;4.72;100.00;147379.09;4957219;28;20685;-64
2024/01/06 09:07:42;;;;;;;5.20;3.27;;;;;;;4.72;100.00;147380.34;4957195;28;20229;-64
2024/01/06 09:10:09;;;;;;;4.00;2.90;;;;;;;4.77;100.00;147390.28;4957374;28;20240;-64
2024/01/06 09:12:36;;;;;;;4.23;2.60;;;;;;;4.85;100.00;147411.34;4957772;28;20257;-64
2024/01/06 09:15:05;;;;;;;6.53;4.00;;;;;;;4.86;100.00;147413.81;4956613;28;20216;-64
2024/01/06 09:17:31;;;;;;;7.43;3.00;;;;;;;4.86;100.00;147413.81;4959962;28;20226;-64
2024/01/06 09:19:58;;;;;;;5.43;3.50;;;;;;;4.79;100.00;147396.47;4956566;28;20250;-64
2024/01/06 09:22:25;;;;;;;7.07;4.37;;;;;;;4.81;100.00;147401.41;4957994;28;20232;-64
2024/01/06 09:24:52;;;;;;;6.50;4.50;;;;;;;4.85;100.00;147411.34;4958927;28;20222;-64
2024/01/06 09:27:19;;;;;;;5.90;3.90;;;;;;;4.84;100.00;147408.88;4958595;28;20448;-64
2024/01/06 09:29:45;;;;;;;7.07;5.50;;;;;;;4.86;100.00;147412.56;4957889;28;20238;-64
2024/01/06 09:32:14;;;;;;;9.10;5.33;;;;;;;4.84;100.00;147408.88;4938885;28;20230;-64
2024/01/06 09:34:40;;;;;;;7.90;5.00;;;;;;;4.87;100.00;147415.03;4959674;28;20602;-64
2024/01/06 09:37:07;;;;;;;85.13;44.90;;;;;;;4.84;100.00;147408.88;4957745;28;20238;-64
2024/01/06 09:39:34;;;;;;;24.07;16.00;;;;;;;4.90;100.00;147422.50;4956717;28;20237;-63
2024/01/06 09:42:01;;;;;;;7.00;4.33;;;;;;;4.94;100.00;147431.19;4957091;28;20597;-63
2024/01/06 09:44:28;;;;;;;6.38;3.90;;;;;;;5.04;100.00;147456.00;4960176;28;20817;-63
2024/01/06 09:46:59;;;;;;;7.13;4.30;;;;;;;5.03;100.00;147454.75;4954841;28;20228;-64
2024/01/06 09:49:30;;;;;;;5.73;3.10;;;;;;;5.10;100.00;147470.91;4960397;28;20238;-64
2024/01/06 09:51:59;;;;;;;7.87;4.60;;;;;;;5.18;100.00;147489.50;4955016;28;20241;-64
2024/01/06 09:54:33;;;;;;;6.27;3.67;;;;;;;5.20;100.00;147493.25;4942010;28;20222;-64
2024/01/06 09:57:01;;;;;;;7.57;3.50;;;;;;;5.21;100.00;147496.94;4956574;28;20318;-64
2024/01/06 09:59:30;;;;;;;4.77;3.30;;;;;;;5.33;100.00;147525.47;4956604;28;20221;-64
2024/01/06 10:01:58;;;;;;;5.13;3.03;;;;;;;5.21;100.00;147495.72;4957388;28;20245;-64
2024/01/06 10:04:25;;;;;;;8.77;3.50;;;;;;;5.22;100.00;147499.41;4959481;28;20570;-64
2024/01/06 10:06:53;;;;;;;5.03;2.90;;;;;;;5.18;100.00;147489.50;4960561;28;20222;-64
2024/01/06 10:09:27;;;;;;;6.83;3.43;;;;;;;5.19;100.00;147490.75;4955838;28;20758;-64
2024/01/06 10:11:56;;;;;;;5.23;3.50;;;;;;;5.11;100.00;147472.13;4955222;28;20253;-63
2024/01/06 10:14:22;;;;;;;8.53;3.63;;;;;;;5.18;100.00;147489.50;4960039;28;20217;-63
2024/01/06 10:16:50;;;;;;;8.13;3.97;;;;;;;5.22;100.00;147498.22;4959164;28;20234;-63
2024/01/06 10:19:17;;;;;;;51.97;20.07;;;;;;;4.97;100.00;147438.63;4954690;28;20228;-63
2024/01/06 10:21:44;;;;;;;10.10;5.17;;;;;;;5.05;100.00;147457.22;4957013;28;20594;-63
2024/01/06 10:24:13;;;;;;;9.17;4.77;;;;;;;5.08;100.00;147464.69;4955286;28;20228;-63
2024/01/06 10:26:40;;;;;;;11.73;3.87;;;;;;;5.13;100.00;147477.09;4959371;28;20255;-63
2024/01/06 10:29:06;;;;;;;10.03;5.60;;;;;;;5.19;100.00;147490.75;4956747;28;20235;-63
2024/01/06 10:31:33;;;;;;;7.37;4.47;;;;;;;5.21;100.00;147496.94;4957607;28;20233;-63
2024/01/06 10:34:01;;;;;;;7.77;4.43;;;;;;;5.17;100.00;147488.28;4956043;28;20241;-63
2024/01/06 10:36:29;;;;;;;7.67;4.07;;;;;;;5.24;100.00;147504.38;4965215;28;20222;-64
2024/01/06 10:38:58;;;;;;;9.33;3.97;;;;;;;5.25;100.00;147505.66;4959279;28;20234;-63
2024/01/06 10:41:27;;;;;;;6.30;4.43;;;;;;;5.27;100.00;147510.63;4959043;28;20246;-63
2024/01/06 10:43:55;;;;;;;7.17;4.40;;;;;;;5.35;100.00;147530.44;4960016;28;20234;-63
2024/01/06 10:46:25;;;;;;;15.57;9.47;;;;;;;5.32;100.00;147524.25;4965346;28;20226;-62
2024/01/06 10:48:53;;;;;;;10.10;6.20;;;;;;;5.30;100.00;147518.06;4963873;28;20226;-63
2024/01/06 10:51:22;;;;;;;15.93;9.17;;;;;;;5.27;100.00;147511.84;4961035;28;20230;-63
2024/01/06 10:53:51;;;;;;;14.50;6.63;;;;;;;5.33;100.00;147525.47;4951283;28;20597;-63
2024/01/06 10:56:18;;;;;;;41.80;18.27;;;;;;;5.32;100.00;147522.97;4958470;28;20222;-63
2024/01/06 10:58:49;;;;;;;50.77;22.13;;;;;;;5.42;100.00;147546.59;4960356;28;20221;-63
2024/01/06 11:01:20;;;;;;;138.00;59.30;;;;;;;5.37;100.00;147535.38;4957248;28;20248;-62
2024/01/06 11:03:48;;;;;;;17.63;9.67;;;;;;;5.22;100.00;147498.22;4961700;28;20567;-62
2024/01/06 11:06:17;;;;;;;12.30;7.13;;;;;;;5.27;100.00;147511.84;4959911;28;20234;-62
2024/01/06 11:08:49;;;;;;;13.97;6.20;;;;;;;5.31;100.00;147521.75;4959359;28;20317;-63
2024/01/06 11:11:19;;;;;;;11.53;5.90;;;;;;;5.27;100.00;147510.63;4930880;28;20259;-63
2024/01/06 11:13:48;;;;;;;14.07;5.67;;;;;;;5.29;100.00;147516.78;4952778;28;20729;-62
2024/01/06 11:16:36;;;;;;;11.90;7.37;;;;;;;5.31;100.00;147520.50;4960555;28;20241;-62
2024/01/06 11:19:03;;;;;;;12.17;10.80;;;;;;;5.31;100.00;147520.50;4957895;28;20233;-62
2024/01/06 11:21:34;;;;;;;12.97;9.60;;;;;;;5.25;100.00;147505.66;4959817;28;20253;-62
2024/01/06 11:24:20;;;;;;;73.03;31.17;;;;;;;5.24;100.00;147503.16;4959838;28;20233;-62
2024/01/06 11:26:50;;;;;;;17.20;8.73;;;;;;;5.27;100.00;147510.63;4961932;28;20232;-62